AVA9341 SKCC-SKBO
Flight info
| Callsign | AVA9341 |
|---|---|
| Flight time | 0h 53m |
| Altitude | 36000 |
| Route | TORAT1K TORAT DCT DOPLO DOPLO5E |
| Aircraft | A320/M-SDE3FGHIRWY/LB1 |
Departure
| Time | 2026-05-06 00:05 |
|---|---|
| Airport | Camilo Daza International Airport (SKCC) |
Arrival
| Time | 2026-05-06 00:58 |
|---|---|
| Airport | El Dorado International Airport (SKBO) |
| Time | Latitude | Longitude | Altitude | Speed | Heading |
|---|---|---|---|---|---|
| 2026-05-05 23:50 | 7.92811 | -72.50873 | 1032 ft | 0 kts | 207° |
| 2026-05-05 23:52 | 7.92817 | -72.50870 | 1032 ft | 4 kts | 208° |
| 2026-05-05 23:53 | 7.92833 | -72.50860 | 1032 ft | 4 kts | 218° |
| 2026-05-05 23:53 | 7.92853 | -72.50834 | 1032 ft | 4 kts | 270° |
| 2026-05-05 23:53 | 7.92851 | -72.50823 | 1032 ft | 0 kts | 297° |
| 2026-05-05 23:59 | 7.92869 | -72.50858 | 1032 ft | 9 kts | 297° |
| 2026-05-05 23:59 | 7.92874 | -72.50866 | 1032 ft | 0 kts | 296° |
| 2026-05-06 00:00 | 7.92874 | -72.50867 | 1032 ft | 2 kts | 296° |
| 2026-05-06 00:00 | 7.92828 | -72.50922 | 1032 ft | 21 kts | 218° |
| 2026-05-06 00:00 | 7.92769 | -72.51054 | 1032 ft | 21 kts | 244° |
| 2026-05-06 00:01 | 7.92746 | -72.51162 | 1033 ft | 8 kts | 325° |
| 2026-05-06 00:01 | 7.92797 | -72.51198 | 1033 ft | 12 kts | 325° |
| 2026-05-06 00:01 | 7.92901 | -72.51262 | 1033 ft | 22 kts | 329° |
| 2026-05-06 00:01 | 7.93057 | -72.51355 | 1038 ft | 29 kts | 329° |
| 2026-05-06 00:02 | 7.93247 | -72.51467 | 1043 ft | 34 kts | 328° |
| 2026-05-06 00:02 | 7.93434 | -72.51585 | 1057 ft | 29 kts | 328° |
| 2026-05-06 00:02 | 7.93597 | -72.51685 | 1071 ft | 25 kts | 329° |
| 2026-05-06 00:02 | 7.93732 | -72.51766 | 1081 ft | 20 kts | 329° |
| 2026-05-06 00:03 | 7.93818 | -72.51860 | 1087 ft | 18 kts | 299° |
| 2026-05-06 00:03 | 7.93875 | -72.51962 | 1092 ft | 15 kts | 302° |
| 2026-05-06 00:03 | 7.93942 | -72.52021 | 1098 ft | 11 kts | 331° |
| 2026-05-06 00:03 | 7.93999 | -72.52046 | 1101 ft | 7 kts | 8° |
| 2026-05-06 00:04 | 7.94017 | -72.52018 | 1098 ft | 5 kts | 66° |
| 2026-05-06 00:04 | 7.94041 | -72.51961 | 1101 ft | 12 kts | 72° |
| 2026-05-06 00:04 | 7.93972 | -72.51913 | 1097 ft | 18 kts | 154° |
| 2026-05-06 00:04 | 7.93803 | -72.51801 | 1084 ft | 60 kts | 150° |
| 2026-05-06 00:05 | 7.92275 | -72.50870 | 1181 ft | 171 kts | 148° |
| 2026-05-06 00:05 | 7.91229 | -72.50237 | 1802 ft | 179 kts | 148° |
| 2026-05-06 00:05 | 7.90173 | -72.49584 | 2571 ft | 176 kts | 147° |
| 2026-05-06 00:06 | 7.89149 | -72.48928 | 3268 ft | 174 kts | 146° |
| 2026-05-06 00:06 | 7.87991 | -72.48454 | 3572 ft | 192 kts | 174° |
| 2026-05-06 00:06 | 7.86658 | -72.48697 | 4042 ft | 202 kts | 208° |
| 2026-05-06 00:06 | 7.85648 | -72.49675 | 4575 ft | 206 kts | 244° |
| 2026-05-06 00:07 | 7.85360 | -72.51071 | 5182 ft | 198 kts | 284° |
| 2026-05-06 00:07 | 7.85881 | -72.52260 | 5848 ft | 192 kts | 311° |
| 2026-05-06 00:07 | 7.86955 | -72.53090 | 6197 ft | 199 kts | 344° |
| 2026-05-06 00:07 | 7.88308 | -72.53200 | 6697 ft | 196 kts | 17° |
| 2026-05-06 00:08 | 7.89595 | -72.52746 | 7255 ft | 198 kts | 22° |
| 2026-05-06 00:08 | 7.90894 | -72.52262 | 7825 ft | 200 kts | 22° |
| 2026-05-06 00:08 | 7.92216 | -72.51775 | 8389 ft | 203 kts | 21° |
| 2026-05-06 00:08 | 7.93581 | -72.51394 | 8946 ft | 205 kts | 6° |
| 2026-05-06 00:09 | 7.95058 | -72.51402 | 9279 ft | 222 kts | 0° |
| 2026-05-06 00:09 | 7.96649 | -72.51454 | 9549 ft | 240 kts | 360° |
| 2026-05-06 00:09 | 7.98368 | -72.51517 | 10075 ft | 247 kts | 360° |
| 2026-05-06 00:09 | 8.00067 | -72.51579 | 10674 ft | 249 kts | 0° |
| 2026-05-06 00:10 | 8.01811 | -72.51644 | 11301 ft | 252 kts | 360° |
| 2026-05-06 00:10 | 8.03577 | -72.51710 | 11907 ft | 257 kts | 360° |
| 2026-05-06 00:10 | 8.05377 | -72.51777 | 12558 ft | 260 kts | 0° |
| 2026-05-06 00:10 | 8.07196 | -72.51842 | 13237 ft | 263 kts | 0° |
| 2026-05-06 00:11 | 8.09034 | -72.51908 | 13902 ft | 266 kts | 0° |
| 2026-05-06 00:11 | 8.10895 | -72.51974 | 14551 ft | 269 kts | 1° |
| 2026-05-06 00:11 | 8.12773 | -72.52037 | 15198 ft | 271 kts | 1° |
| 2026-05-06 00:11 | 8.14636 | -72.51867 | 15790 ft | 269 kts | 23° |
| 2026-05-06 00:12 | 8.16196 | -72.50888 | 16347 ft | 265 kts | 51° |
| 2026-05-06 00:12 | 8.17103 | -72.49297 | 16911 ft | 263 kts | 77° |
| 2026-05-06 00:12 | 8.17177 | -72.47469 | 17466 ft | 265 kts | 103° |
| 2026-05-06 00:12 | 8.16384 | -72.45790 | 18008 ft | 271 kts | 129° |
| 2026-05-06 00:13 | 8.14857 | -72.44660 | 18531 ft | 280 kts | 157° |
| 2026-05-06 00:13 | 8.12911 | -72.44416 | 19017 ft | 291 kts | 187° |
| 2026-05-06 00:13 | 8.10971 | -72.45071 | 19520 ft | 298 kts | 200° |
| 2026-05-06 00:13 | 8.09046 | -72.45878 | 20019 ft | 300 kts | 199° |
| 2026-05-06 00:14 | 8.07050 | -72.46638 | 20247 ft | 315 kts | 198° |
| 2026-05-06 00:14 | 8.04932 | -72.47392 | 20380 ft | 331 kts | 197° |
| 2026-05-06 00:14 | 8.02695 | -72.48158 | 20507 ft | 348 kts | 197° |
| 2026-05-06 00:14 | 8.00348 | -72.48950 | 20631 ft | 363 kts | 197° |
| 2026-05-06 00:15 | 7.97904 | -72.49779 | 20763 ft | 379 kts | 197° |
| 2026-05-06 00:15 | 7.95398 | -72.50746 | 20887 ft | 394 kts | 206° |
| 2026-05-06 00:15 | 7.93076 | -72.52300 | 21018 ft | 409 kts | 220° |
| 2026-05-06 00:15 | 7.91151 | -72.54468 | 21233 ft | 421 kts | 234° |
| 2026-05-06 00:16 | 7.89472 | -72.56909 | 21634 ft | 425 kts | 234° |
| 2026-05-06 00:16 | 7.87772 | -72.59362 | 22072 ft | 428 kts | 234° |
| 2026-05-06 00:16 | 7.86056 | -72.61823 | 22527 ft | 430 kts | 234° |
| 2026-05-06 00:16 | 7.84330 | -72.64294 | 22965 ft | 432 kts | 234° |
| 2026-05-06 00:17 | 7.82592 | -72.66781 | 23391 ft | 434 kts | 235° |
| 2026-05-06 00:17 | 7.80852 | -72.69274 | 23787 ft | 436 kts | 235° |
| 2026-05-06 00:17 | 7.79105 | -72.71781 | 24189 ft | 438 kts | 235° |
| 2026-05-06 00:17 | 7.77348 | -72.74301 | 24561 ft | 440 kts | 235° |
| 2026-05-06 00:18 | 7.75583 | -72.76826 | 24925 ft | 442 kts | 235° |
| 2026-05-06 00:18 | 7.73811 | -72.79362 | 25261 ft | 444 kts | 235° |
| 2026-05-06 00:18 | 7.72031 | -72.81916 | 25600 ft | 446 kts | 235° |
| 2026-05-06 00:18 | 7.70247 | -72.84476 | 25930 ft | 447 kts | 234° |
| 2026-05-06 00:19 | 7.68209 | -72.86849 | 26234 ft | 449 kts | 224° |
| 2026-05-06 00:19 | 7.65775 | -72.88830 | 26534 ft | 451 kts | 213° |
| 2026-05-06 00:19 | 7.63048 | -72.90336 | 26822 ft | 453 kts | 203° |
| 2026-05-06 00:19 | 7.60068 | -72.91393 | 27119 ft | 455 kts | 197° |
| 2026-05-06 00:20 | 7.57045 | -72.92340 | 27404 ft | 457 kts | 197° |
| 2026-05-06 00:20 | 7.53998 | -72.93295 | 27682 ft | 459 kts | 197° |
| 2026-05-06 00:20 | 7.50947 | -72.94253 | 27956 ft | 460 kts | 197° |
| 2026-05-06 00:20 | 7.47881 | -72.95216 | 28222 ft | 462 kts | 197° |
| 2026-05-06 00:21 | 7.44803 | -72.96187 | 28481 ft | 464 kts | 197° |
| 2026-05-06 00:21 | 7.41721 | -72.97161 | 28735 ft | 466 kts | 197° |
| 2026-05-06 00:21 | 7.38623 | -72.98139 | 28982 ft | 467 kts | 197° |
| 2026-05-06 00:21 | 7.35517 | -72.99118 | 29218 ft | 469 kts | 197° |
| 2026-05-06 00:22 | 7.32389 | -73.00102 | 29452 ft | 470 kts | 197° |
| 2026-05-06 00:22 | 7.29263 | -73.01085 | 29680 ft | 472 kts | 197° |
| 2026-05-06 00:22 | 7.26127 | -73.02071 | 29900 ft | 473 kts | 197° |
| 2026-05-06 00:22 | 7.22981 | -73.03061 | 30115 ft | 474 kts | 197° |
| 2026-05-06 00:23 | 7.19831 | -73.04052 | 30313 ft | 476 kts | 197° |
| 2026-05-06 00:23 | 7.16664 | -73.05047 | 30498 ft | 477 kts | 197° |
| 2026-05-06 00:23 | 7.13492 | -73.06040 | 30723 ft | 475 kts | 196° |
| 2026-05-06 00:23 | 7.10335 | -73.07029 | 30911 ft | 476 kts | 197° |
| 2026-05-06 00:24 | 7.07167 | -73.08026 | 31137 ft | 476 kts | 197° |
| 2026-05-06 00:24 | 7.04001 | -73.09024 | 31390 ft | 476 kts | 197° |
| 2026-05-06 00:24 | 7.00844 | -73.10020 | 31627 ft | 476 kts | 197° |
| 2026-05-06 00:24 | 6.97682 | -73.11017 | 31878 ft | 476 kts | 197° |
| 2026-05-06 00:25 | 6.94522 | -73.12011 | 32139 ft | 476 kts | 197° |
| 2026-05-06 00:25 | 6.91403 | -73.12990 | 32391 ft | 475 kts | 197° |
| 2026-05-06 00:25 | 6.88241 | -73.13978 | 32648 ft | 475 kts | 197° |
| 2026-05-06 00:25 | 6.85090 | -73.14960 | 32913 ft | 475 kts | 197° |
| 2026-05-06 00:26 | 6.81936 | -73.15944 | 33163 ft | 474 kts | 197° |
| 2026-05-06 00:26 | 6.78786 | -73.16931 | 33420 ft | 474 kts | 197° |
| 2026-05-06 00:26 | 6.75636 | -73.17922 | 33674 ft | 474 kts | 197° |
| 2026-05-06 00:26 | 6.72490 | -73.18914 | 33925 ft | 474 kts | 197° |
| 2026-05-06 00:27 | 6.69344 | -73.19904 | 34182 ft | 474 kts | 197° |
| 2026-05-06 00:27 | 6.66196 | -73.20895 | 34443 ft | 473 kts | 197° |
| 2026-05-06 00:27 | 6.63054 | -73.21884 | 34706 ft | 473 kts | 197° |
| 2026-05-06 00:27 | 6.59921 | -73.22868 | 34956 ft | 472 kts | 197° |
| 2026-05-06 00:28 | 6.56788 | -73.23847 | 35197 ft | 471 kts | 197° |
| 2026-05-06 00:28 | 6.53657 | -73.24823 | 35443 ft | 470 kts | 197° |
| 2026-05-06 00:28 | 6.50532 | -73.25798 | 35672 ft | 470 kts | 197° |
| 2026-05-06 00:28 | 6.47414 | -73.26771 | 35897 ft | 469 kts | 197° |
| 2026-05-06 00:29 | 6.44299 | -73.27747 | 35973 ft | 469 kts | 197° |
| 2026-05-06 00:29 | 6.38083 | -73.29706 | 35979 ft | 468 kts | 197° |
| 2026-05-06 00:30 | 6.31872 | -73.31656 | 35983 ft | 467 kts | 197° |
| 2026-05-06 00:30 | 6.25663 | -73.33600 | 35980 ft | 467 kts | 197° |
| 2026-05-06 00:31 | 6.19452 | -73.35544 | 35991 ft | 467 kts | 197° |
| 2026-05-06 00:31 | 6.13287 | -73.37475 | 35987 ft | 467 kts | 197° |
| 2026-05-06 00:32 | 6.07078 | -73.39419 | 35990 ft | 467 kts | 197° |
| 2026-05-06 00:32 | 6.00878 | -73.41358 | 36001 ft | 467 kts | 197° |
| 2026-05-06 00:33 | 5.94669 | -73.43298 | 36002 ft | 467 kts | 197° |
| 2026-05-06 00:33 | 5.88467 | -73.45237 | 36012 ft | 467 kts | 197° |
| 2026-05-06 00:34 | 5.82738 | -73.48146 | 36024 ft | 466 kts | 226° |
| 2026-05-06 00:34 | 5.80894 | -73.50784 | 36027 ft | 464 kts | 247° |
| 2026-05-06 00:34 | 5.80075 | -73.53893 | 36032 ft | 461 kts | 266° |
| 2026-05-06 00:35 | 5.78930 | -73.60191 | 36034 ft | 462 kts | 244° |
| 2026-05-06 00:35 | 5.77191 | -73.62895 | 36051 ft | 462 kts | 228° |
| 2026-05-06 00:35 | 5.74809 | -73.65052 | 36057 ft | 462 kts | 213° |
| 2026-05-06 00:35 | 5.71960 | -73.66550 | 35931 ft | 465 kts | 201° |
| 2026-05-06 00:36 | 5.68942 | -73.67730 | 35676 ft | 467 kts | 200° |
| 2026-05-06 00:36 | 5.65896 | -73.68893 | 34888 ft | 470 kts | 200° |
| 2026-05-06 00:36 | 5.62824 | -73.70047 | 34009 ft | 472 kts | 200° |
| 2026-05-06 00:36 | 5.59738 | -73.71201 | 33122 ft | 473 kts | 200° |
| 2026-05-06 00:37 | 5.56643 | -73.72364 | 32130 ft | 477 kts | 200° |
| 2026-05-06 00:37 | 5.53532 | -73.73543 | 31093 ft | 480 kts | 200° |
| 2026-05-06 00:37 | 5.50404 | -73.74733 | 30156 ft | 480 kts | 200° |
| 2026-05-06 00:37 | 5.47349 | -73.76029 | 29548 ft | 474 kts | 207° |
| 2026-05-06 00:38 | 5.44606 | -73.77826 | 28855 ft | 470 kts | 219° |
| 2026-05-06 00:38 | 5.42274 | -73.80097 | 28176 ft | 465 kts | 230° |
| 2026-05-06 00:38 | 5.40428 | -73.82740 | 27491 ft | 461 kts | 240° |
| 2026-05-06 00:38 | 5.39116 | -73.85647 | 26800 ft | 457 kts | 251° |
| 2026-05-06 00:39 | 5.38091 | -73.88658 | 26107 ft | 454 kts | 251° |
| 2026-05-06 00:39 | 5.37415 | -73.90642 | 25652 ft | 451 kts | 251° |
| 2026-05-06 00:39 | 5.36398 | -73.93609 | 24971 ft | 448 kts | 251° |
| 2026-05-06 00:39 | 5.35047 | -73.97526 | 24351 ft | 436 kts | 251° |
| 2026-05-06 00:40 | 5.34088 | -74.00313 | 24219 ft | 421 kts | 251° |
| 2026-05-06 00:40 | 5.33454 | -74.02163 | 24087 ft | 412 kts | 251° |
| 2026-05-06 00:40 | 5.32532 | -74.04862 | 23687 ft | 406 kts | 251° |
| 2026-05-06 00:40 | 5.31619 | -74.07532 | 23058 ft | 400 kts | 251° |
| 2026-05-06 00:41 | 5.30721 | -74.10160 | 22273 ft | 394 kts | 251° |
| 2026-05-06 00:41 | 5.29836 | -74.12748 | 21744 ft | 391 kts | 251° |
| 2026-05-06 00:41 | 5.28953 | -74.15332 | 21145 ft | 393 kts | 251° |
| 2026-05-06 00:41 | 5.28064 | -74.17927 | 20625 ft | 391 kts | 251° |
| 2026-05-06 00:42 | 5.27179 | -74.20505 | 20121 ft | 389 kts | 251° |
| 2026-05-06 00:42 | 5.26302 | -74.23061 | 19637 ft | 386 kts | 251° |
| 2026-05-06 00:42 | 5.25443 | -74.25570 | 19150 ft | 385 kts | 250° |
| 2026-05-06 00:42 | 5.24565 | -74.28127 | 18800 ft | 378 kts | 251° |
| 2026-05-06 00:43 | 5.23770 | -74.30594 | 18670 ft | 366 kts | 256° |
| 2026-05-06 00:43 | 5.23443 | -74.33075 | 18247 ft | 353 kts | 271° |
| 2026-05-06 00:43 | 5.23609 | -74.35505 | 18134 ft | 349 kts | 275° |
| 2026-05-06 00:43 | 5.23810 | -74.37907 | 18140 ft | 350 kts | 275° |
| 2026-05-06 00:44 | 5.24001 | -74.40336 | 18140 ft | 351 kts | 275° |
| 2026-05-06 00:44 | 5.24190 | -74.42785 | 18101 ft | 351 kts | 275° |
| 2026-05-06 00:44 | 5.24277 | -74.45229 | 18087 ft | 350 kts | 266° |
| 2026-05-06 00:44 | 5.23877 | -74.47633 | 18069 ft | 349 kts | 253° |
| 2026-05-06 00:45 | 5.23056 | -74.49924 | 18052 ft | 349 kts | 249° |
| 2026-05-06 00:45 | 5.22192 | -74.52204 | 18038 ft | 349 kts | 249° |
| 2026-05-06 00:45 | 5.21336 | -74.54486 | 18019 ft | 350 kts | 249° |
| 2026-05-06 00:45 | 5.20482 | -74.56769 | 18021 ft | 350 kts | 249° |
| 2026-05-06 00:46 | 5.19496 | -74.58995 | 18019 ft | 349 kts | 238° |
| 2026-05-06 00:46 | 5.18074 | -74.60953 | 17997 ft | 347 kts | 225° |
| 2026-05-06 00:46 | 5.16339 | -74.62627 | 17989 ft | 346 kts | 221° |
| 2026-05-06 00:46 | 5.14585 | -74.64276 | 17973 ft | 346 kts | 221° |
| 2026-05-06 00:47 | 5.12826 | -74.65936 | 17984 ft | 346 kts | 221° |
| 2026-05-06 00:47 | 5.11075 | -74.67593 | 17973 ft | 346 kts | 222° |
| 2026-05-06 00:47 | 5.09315 | -74.69229 | 17962 ft | 345 kts | 217° |
| 2026-05-06 00:47 | 5.07327 | -74.70547 | 17962 ft | 342 kts | 204° |
| 2026-05-06 00:48 | 5.05117 | -74.71405 | 17962 ft | 340 kts | 195° |
| 2026-05-06 00:48 | 5.02858 | -74.72110 | 17968 ft | 340 kts | 195° |
| 2026-05-06 00:48 | 5.00571 | -74.72706 | 17965 ft | 338 kts | 184° |
| 2026-05-06 00:48 | 4.98281 | -74.72571 | 17957 ft | 332 kts | 162° |
| 2026-05-06 00:49 | 4.96205 | -74.71635 | 17971 ft | 327 kts | 142° |
| 2026-05-06 00:49 | 4.94605 | -74.70034 | 17977 ft | 323 kts | 122° |
| 2026-05-06 00:49 | 4.93647 | -74.68019 | 17633 ft | 319 kts | 103° |
| 2026-05-06 00:49 | 4.93350 | -74.65824 | 16827 ft | 318 kts | 94° |
| 2026-05-06 00:50 | 4.93177 | -74.63622 | 16344 ft | 316 kts | 94° |
| 2026-05-06 00:50 | 4.93000 | -74.61428 | 15987 ft | 315 kts | 94° |
| 2026-05-06 00:50 | 4.92819 | -74.59237 | 15638 ft | 314 kts | 95° |
| 2026-05-06 00:50 | 4.92632 | -74.57074 | 15290 ft | 311 kts | 95° |
| 2026-05-06 00:51 | 4.92445 | -74.54915 | 14952 ft | 310 kts | 95° |
| 2026-05-06 00:51 | 4.92259 | -74.52765 | 14641 ft | 309 kts | 94° |
| 2026-05-06 00:51 | 4.92076 | -74.50627 | 14327 ft | 308 kts | 95° |
| 2026-05-06 00:51 | 4.91890 | -74.48497 | 14035 ft | 306 kts | 94° |
| 2026-05-06 00:52 | 4.91698 | -74.46369 | 13742 ft | 306 kts | 95° |
| 2026-05-06 00:52 | 4.91696 | -74.46351 | 13740 ft | 305 kts | 95° |
| 2026-05-06 00:52 | 4.91535 | -74.44567 | 13659 ft | 298 kts | 95° |
| 2026-05-06 00:52 | 4.91290 | -74.42547 | 13531 ft | 287 kts | 103° |
| 2026-05-06 00:53 | 4.90598 | -74.40693 | 13266 ft | 284 kts | 118° |
| 2026-05-06 00:53 | 4.89495 | -74.39050 | 12824 ft | 285 kts | 125° |
| 2026-05-06 00:53 | 4.88358 | -74.37472 | 12570 ft | 281 kts | 125° |
| 2026-05-06 00:53 | 4.87209 | -74.35880 | 12375 ft | 274 kts | 125° |
| 2026-05-06 00:54 | 4.86076 | -74.34367 | 12250 ft | 267 kts | 130° |
| 2026-05-06 00:54 | 4.84875 | -74.33033 | 12150 ft | 256 kts | 129° |
| 2026-05-06 00:54 | 4.83783 | -74.31674 | 12000 ft | 247 kts | 126° |
| 2026-05-06 00:54 | 4.82755 | -74.30309 | 11735 ft | 244 kts | 126° |
| 2026-05-06 00:55 | 4.81747 | -74.28970 | 11554 ft | 236 kts | 126° |
| 2026-05-06 00:55 | 4.80770 | -74.27676 | 11383 ft | 231 kts | 126° |
| 2026-05-06 00:55 | 4.79801 | -74.26396 | 11089 ft | 230 kts | 126° |
| 2026-05-06 00:55 | 4.78841 | -74.25125 | 10794 ft | 229 kts | 126° |
| 2026-05-06 00:56 | 4.77879 | -74.23853 | 10492 ft | 228 kts | 127° |
| 2026-05-06 00:56 | 4.76943 | -74.22616 | 10207 ft | 215 kts | 127° |
| 2026-05-06 00:56 | 4.76066 | -74.21457 | 9905 ft | 202 kts | 127° |
| 2026-05-06 00:56 | 4.75264 | -74.20396 | 9660 ft | 181 kts | 127° |
| 2026-05-06 00:57 | 4.74532 | -74.19429 | 9425 ft | 167 kts | 127° |
| 2026-05-06 00:57 | 4.73845 | -74.18520 | 9209 ft | 161 kts | 127° |
| 2026-05-06 00:57 | 4.73175 | -74.17635 | 8998 ft | 158 kts | 127° |
| 2026-05-06 00:57 | 4.72512 | -74.16758 | 8789 ft | 157 kts | 127° |
| 2026-05-06 00:58 | 4.71858 | -74.15895 | 8584 ft | 157 kts | 127° |
| 2026-05-06 00:58 | 4.71201 | -74.15026 | 8393 ft | 156 kts | 127° |
| 2026-05-06 00:58 | 4.70630 | -74.14268 | 8372 ft | 102 kts | 127° |
| 2026-05-06 00:58 | 4.70366 | -74.13919 | 8370 ft | 35 kts | 127° |
| 2026-05-06 00:59 | 4.70278 | -74.13876 | 8370 ft | 4 kts | 220° |
| 2026-05-06 00:59 | 4.70262 | -74.13887 | 8370 ft | 1 kts | 217° |
| 2026-05-06 00:59 | 4.70257 | -74.13892 | 8371 ft | 4 kts | 217° |
| 2026-05-06 00:59 | 4.70225 | -74.13914 | 8371 ft | 7 kts | 214° |
| 2026-05-06 01:00 | 4.70171 | -74.13951 | 8372 ft | 10 kts | 214° |
| 2026-05-06 01:00 | 4.70116 | -74.13989 | 8373 ft | 10 kts | 217° |
| 2026-05-06 01:00 | 4.70062 | -74.14030 | 8373 ft | 10 kts | 218° |
| 2026-05-06 01:00 | 4.70010 | -74.14077 | 8373 ft | 10 kts | 242° |
| 2026-05-06 01:01 | 4.69984 | -74.14125 | 8373 ft | 0 kts | 223° |